Time;durP1;ratioP1;P1;durP2;ratioP2;P2;SDS_P1;SDS_P2;PMS_P1;PMS_P2;Temp;Humidity;BMP_temperature;BMP_pressure;BME280_temperature;BME280_humidity;BME280_pressure;Samples;Min_cycle;Max_cycle;Signal;HPM_P1;HPM_P2
2021/06/29 00:03:30;;;;;;;6.18;5.55;;;;;;;21.91;76.92;99864.41;10349621;28;20048;-60
2021/06/29 00:08:32;;;;;;;7.82;5.90;;;;;;;21.97;76.28;99885.25;10355310;28;20050;-61
2021/06/29 00:13:53;;;;;;;5.72;5.22;;;;;;;21.63;78.05;99914.16;10352785;28;20123;-60
2021/06/29 00:18:55;;;;;;;7.60;5.32;;;;;;;21.74;79.67;99910.84;10347793;28;20553;-61
2021/06/29 00:23:56;;;;;;;5.32;4.82;;;;;;;21.79;77.49;99897.50;10357988;28;20045;-60
2021/06/29 00:28:58;;;;;;;4.95;4.63;;;;;;;21.86;77.00;99903.78;10343357;28;20060;-60
2021/06/29 00:34:00;;;;;;;6.43;4.47;;;;;;;21.88;76.95;99903.56;10345235;28;20068;-60
2021/06/29 00:39:02;;;;;;;5.50;4.97;;;;;;;21.91;76.68;99897.75;10348692;28;20054;-60
2021/06/29 00:44:03;;;;;;;4.75;4.38;;;;;;;21.96;75.57;99889.81;10351178;28;20050;-60
2021/06/29 00:49:05;;;;;;;5.47;4.85;;;;;;;21.88;76.29;99885.44;10359426;28;20056;-63
2021/06/29 00:54:07;;;;;;;5.93;5.30;;;;;;;21.84;77.50;99870.66;10349391;28;20053;-61
2021/06/29 00:59:08;;;;;;;4.95;4.55;;;;;;;21.77;76.60;99877.94;10346730;28;20522;-61
2021/06/29 01:04:10;;;;;;;5.80;5.13;;;;;;;21.80;76.41;99904.59;10354913;28;20068;-60
2021/06/29 01:09:11;;;;;;;5.78;5.28;;;;;;;21.78;76.88;99898.53;10327899;28;20054;-60
2021/06/29 01:14:15;;;;;;;5.65;5.13;;;;;;;21.80;75.20;99896.47;10347979;28;20050;-61
2021/06/29 01:19:21;;;;;;;5.10;4.80;;;;;;;21.77;76.19;99877.06;10338242;28;20038;-61
2021/06/29 01:24:30;;;;;;;5.97;5.57;;;;;;;21.72;75.92;99883.13;10343663;28;20400;-60
2021/06/29 01:34:43;;;;;;;5.85;5.35;;;;;;;21.56;77.69;99883.50;10341860;28;20073;-60
2021/06/29 01:40:03;;;;;;;5.32;4.82;;;;;;;21.77;76.73;99886.06;10354857;28;20055;-65
2021/06/29 01:45:06;;;;;;;6.43;5.82;;;;;;;21.75;77.32;99881.88;10331478;28;20719;-64
2021/06/29 01:50:09;;;;;;;7.03;6.53;;;;;;;21.69;77.64;99888.94;10350979;28;20077;-60
2021/06/29 01:55:11;;;;;;;6.47;5.97;;;;;;;21.65;78.32;99893.13;10347753;28;20046;-60
2021/06/29 02:00:14;;;;;;;7.18;6.13;;;;;;;21.62;78.61;99882.66;10348959;28;20454;-60
2021/06/29 02:05:16;;;;;;;7.67;6.87;;;;;;;21.57;79.74;99866.22;10342933;28;20052;-62
2021/06/29 02:10:18;;;;;;;7.57;6.85;;;;;;;21.59;79.82;99862.28;10334557;28;20185;-60
2021/06/29 02:15:20;;;;;;;7.80;7.20;;;;;;;21.57;79.64;99863.50;10349925;28;20049;-60
2021/06/29 02:20:21;;;;;;;6.63;6.13;;;;;;;21.53;79.50;99863.09;10349460;28;20391;-60
2021/06/29 02:25:23;;;;;;;7.38;6.78;;;;;;;21.51;79.62;99874.13;10342056;28;20294;-59
2021/06/29 02:30:25;;;;;;;8.27;7.47;;;;;;;21.44;79.72;99878.66;10346569;28;20056;-60
2021/06/29 02:35:28;;;;;;;7.47;6.95;;;;;;;21.39;80.80;99867.59;10328937;28;20046;-59
2021/06/29 02:40:30;;;;;;;7.73;6.87;;;;;;;21.40;80.81;99846.78;10328001;28;20056;-61
2021/06/29 02:45:31;;;;;;;8.10;7.30;;;;;;;21.42;81.07;99850.13;10357277;28;20087;-60
2021/06/29 02:50:33;;;;;;;8.60;7.82;;;;;;;21.41;80.81;99849.28;10344299;28;20049;-60
2021/06/29 02:55:35;;;;;;;7.35;6.85;;;;;;;21.41;80.53;99856.56;10338539;28;20238;-60
2021/06/29 03:00:36;;;;;;;8.10;7.40;;;;;;;21.36;80.40;99865.28;10350560;28;20053;-60
2021/06/29 03:05:38;;;;;;;8.60;7.70;;;;;;;21.27;80.67;99874.63;10353551;28;21784;-60
2021/06/29 03:10:39;;;;;;;8.82;7.93;;;;;;;21.24;80.97;99870.44;10344751;28;20054;-63
2021/06/29 03:15:41;;;;;;;8.25;7.55;;;;;;;21.26;80.90;99870.25;10355141;28;20439;-60
2021/06/29 03:20:42;;;;;;;6.85;5.68;;;;;;;21.22;79.04;99877.13;10340185;28;20502;-60
2021/06/29 03:25:44;;;;;;;4.80;3.70;;;;;;;21.15;77.59;99866.25;10343362;28;20050;-60
2021/06/29 03:30:45;;;;;;;4.43;4.03;;;;;;;21.15;76.49;99872.53;10364221;28;20045;-61
2021/06/29 03:35:47;;;;;;;4.53;4.13;;;;;;;21.13;76.85;99866.47;10359302;28;20058;-60
2021/06/29 03:40:48;;;;;;;4.80;4.30;;;;;;;21.03;76.67;99874.13;10319157;28;20058;-60
2021/06/29 03:45:50;;;;;;;5.95;5.03;;;;;;;21.10;76.91;99880.41;10355160;28;20053;-60
2021/06/29 03:50:52;;;;;;;4.93;4.47;;;;;;;21.06;76.86;99881.84;10354112;28;20067;-60
2021/06/29 03:55:53;;;;;;;4.82;4.32;;;;;;;21.03;77.22;99879.53;10352398;28;20052;-60
2021/06/29 04:00:55;;;;;;;5.82;4.10;;;;;;;21.02;77.24;99884.13;10335786;28;20487;-60
2021/06/29 04:05:57;;;;;;;5.25;4.75;;;;;;;20.95;77.00;99877.84;10317935;28;20086;-60
2021/06/29 04:10:58;;;;;;;7.10;4.95;;;;;;;21.00;77.51;99874.53;10334451;28;20056;-60
2021/06/29 04:16:00;;;;;;;5.40;4.90;;;;;;;21.05;77.03;99853.13;10337148;28;20053;-61
2021/06/29 04:21:02;;;;;;;5.10;4.43;;;;;;;21.02;76.46;99851.66;10349718;28;20132;-60
2021/06/29 04:26:04;;;;;;;5.15;4.53;;;;;;;21.01;75.95;99843.75;10326712;28;20188;-60
2021/06/29 04:31:06;;;;;;;7.95;4.47;;;;;;;21.05;75.91;99845.00;10339188;28;20418;-60
2021/06/29 04:36:07;;;;;;;3.92;3.55;;;;;;;20.97;75.82;99853.28;10326715;28;20053;-60
2021/06/29 04:41:09;;;;;;;5.00;4.45;;;;;;;20.98;75.55;99846.84;10349853;28;20057;-60
2021/06/29 04:46:11;;;;;;;4.53;4.10;;;;;;;20.98;75.96;99849.56;10338536;28;20669;-60
2021/06/29 04:51:13;;;;;;;5.43;4.85;;;;;;;20.90;75.75;99842.44;10335702;28;20065;-61
2021/06/29 04:56:17;;;;;;;6.85;4.18;;;;;;;20.87;76.18;99823.06;10335785;28;20080;-61
2021/06/29 05:01:20;;;;;;;8.57;4.40;;;;;;;20.82;76.27;99824.53;10345653;28;20419;-60
2021/06/29 05:06:22;;;;;;;6.18;4.75;;;;;;;20.86;76.51;99824.94;10347041;28;20644;-60
2021/06/29 05:11:24;;;;;;;7.35;4.20;;;;;;;20.87;76.22;99820.34;10344482;28;20053;-60
2021/06/29 05:16:25;;;;;;;6.03;4.00;;;;;;;20.93;76.20;99819.56;10334109;28;20053;-60
2021/06/29 05:21:27;;;;;;;7.07;3.90;;;;;;;21.00;76.19;99801.47;10337309;28;20137;-60
2021/06/29 05:26:28;;;;;;;7.07;4.28;;;;;;;21.02;76.05;99800.25;10344238;28;20046;-60
2021/06/29 05:31:30;;;;;;;5.20;4.50;;;;;;;20.99;76.12;99806.06;10337309;28;20104;-60
2021/06/29 05:36:32;;;;;;;6.28;4.72;;;;;;;20.97;75.44;99804.59;10343205;28;20393;-60
2021/06/29 05:41:33;;;;;;;8.82;4.82;;;;;;;20.91;75.83;99827.03;10348965;28;20054;-59
2021/06/29 05:46:35;;;;;;;5.47;4.35;;;;;;;20.91;75.62;99835.16;10345712;28;20133;-60
2021/06/29 05:51:38;;;;;;;5.60;4.35;;;;;;;20.92;76.08;99850.34;10342271;28;20144;-59
2021/06/29 05:56:41;;;;;;;13.73;6.67;;;;;;;20.74;76.59;99837.38;10346216;28;20062;-60
2021/06/29 06:01:42;;;;;;;5.40;4.90;;;;;;;20.71;76.87;99846.72;10333062;28;20046;-59
2021/06/29 06:06:44;;;;;;;4.88;4.22;;;;;;;20.75;76.66;99848.00;10361697;28;20179;-60
2021/06/29 06:11:46;;;;;;;6.20;4.60;;;;;;;20.90;76.20;99836.22;10355966;28;20054;-61
2021/06/29 06:16:48;;;;;;;6.22;4.78;;;;;;;20.83;76.15;99831.59;10322895;28;20050;-56
2021/06/29 06:21:50;;;;;;;7.72;4.20;;;;;;;20.96;75.77;99827.28;10311300;28;20053;-57
2021/06/29 06:26:55;;;;;;;5.30;4.10;;;;;;;21.05;75.18;99823.38;10314852;28;20054;-56
2021/06/29 06:31:57;;;;;;;5.95;4.80;;;;;;;21.33;74.58;99825.09;10317622;28;20049;-56
2021/06/29 06:36:58;;;;;;;7.00;5.22;;;;;;;21.50;73.35;99810.19;10341438;28;20271;-61
2021/06/29 06:42:00;;;;;;;6.13;5.53;;;;;;;21.39;73.36;99797.19;10342331;28;20050;-61
2021/06/29 06:47:02;;;;;;;6.72;5.53;;;;;;;21.44;73.16;99810.97;10339526;28;20057;-60
2021/06/29 06:52:04;;;;;;;6.55;5.32;;;;;;;21.47;73.86;99810.56;10337976;28;20045;-61
2021/06/29 06:57:06;;;;;;;8.63;6.85;;;;;;;21.71;72.88;99814.56;10332267;28;20049;-61
2021/06/29 07:02:07;;;;;;;7.03;6.18;;;;;;;21.70;72.72;99812.06;10313596;28;20068;-61
2021/06/29 07:07:09;;;;;;;6.88;6.20;;;;;;;21.76;72.51;99803.13;10329882;28;20064;-61
2021/06/29 07:12:11;;;;;;;6.70;5.43;;;;;;;22.02;72.48;99790.59;10338250;28;20522;-61
2021/06/29 07:17:12;;;;;;;5.15;4.40;;;;;;;22.18;71.44;99783.94;10336987;28;20261;-60
2021/06/29 07:22:14;;;;;;;6.15;5.55;;;;;;;22.65;70.08;99768.38;10339001;28;20227;-61
2021/06/29 07:27:15;;;;;;;6.43;5.32;;;;;;;22.76;68.75;99770.44;10330292;28;20065;-61
2021/06/29 07:32:17;;;;;;;7.15;5.10;;;;;;;22.69;68.07;99763.38;10323140;28;20045;-61
2021/06/29 07:37:18;;;;;;;5.43;4.93;;;;;;;22.90;67.77;99754.91;10310864;28;20518;-61
2021/06/29 07:42:20;;;;;;;5.95;5.35;;;;;;;23.21;66.40;99756.03;10333445;28;20057;-61
2021/06/29 07:47:21;;;;;;;4.18;3.70;;;;;;;23.60;66.00;99767.66;10333089;28;20291;-63
2021/06/29 07:52:23;;;;;;;8.05;5.30;;;;;;;23.67;63.98;99766.78;10340531;28;20053;-61
2021/06/29 07:57:30;;;;;;;5.65;5.15;;;;;;;23.36;64.62;99779.31;10339585;28;20053;-65
2021/06/29 08:02:31;;;;;;;5.72;5.10;;;;;;;23.28;65.05;99764.97;10337160;28;20057;-61
2021/06/29 08:07:33;;;;;;;4.78;4.35;;;;;;;23.45;64.65;99748.97;10336540;28;20104;-61
2021/06/29 08:12:35;;;;;;;4.32;3.92;;;;;;;23.81;64.32;99760.19;10316516;28;20156;-62
2021/06/29 08:17:37;;;;;;;7.93;5.13;;;;;;;23.99;62.58;99757.53;10342647;28;20423;-61
2021/06/29 08:22:39;;;;;;;5.30;4.78;;;;;;;24.15;61.15;99758.81;10329759;28;20619;-61
2021/06/29 08:27:41;;;;;;;5.95;5.43;;;;;;;23.85;60.83;99757.84;10321050;28;20433;-63
2021/06/29 08:32:42;;;;;;;4.47;4.05;;;;;;;24.09;61.70;99756.19;10329421;28;20050;-61
2021/06/29 08:37:44;;;;;;;4.95;4.47;;;;;;;23.94;60.29;99749.19;10331146;28;20061;-61
2021/06/29 08:42:46;;;;;;;5.50;4.80;;;;;;;24.00;60.64;99737.47;10339224;28;20054;-60
2021/06/29 08:47:48;;;;;;;5.28;4.13;;;;;;;24.21;61.00;99738.06;10324398;28;20058;-61
2021/06/29 08:52:49;;;;;;;4.83;4.00;;;;;;;24.65;60.51;99730.69;10303731;28;20054;-61
2021/06/29 08:57:51;;;;;;;5.95;5.43;;;;;;;24.86;58.92;99739.38;10326797;28;20061;-63
2021/06/29 09:02:53;;;;;;;5.13;4.13;;;;;;;24.92;57.71;99748.53;10320060;28;20061;-61
2021/06/29 09:08:05;;;;;;;3.42;3.22;;;;;;;25.33;56.79;99736.88;10299751;28;20054;-61
2021/06/29 09:13:08;;;;;;;4.45;4.05;;;;;;;25.46;54.79;99737.72;10319186;28;20061;-61
2021/06/29 09:18:16;;;;;;;4.00;3.33;;;;;;;25.32;55.44;99710.69;10329956;28;20046;-63
2021/06/29 09:23:26;;;;;;;4.70;3.42;;;;;;;25.44;55.28;99729.78;10347133;28;20439;-61
2021/06/29 09:28:33;;;;;;;3.33;3.03;;;;;;;25.00;55.04;99734.63;10335417;28;20045;-62
2021/06/29 09:33:37;;;;;;;5.22;3.10;;;;;;;24.56;57.29;99729.31;10323774;28;20132;-61
2021/06/29 09:38:40;;;;;;;5.05;4.53;;;;;;;25.11;55.37;99722.09;10326955;28;20054;-61
2021/06/29 09:43:48;;;;;;;5.47;3.58;;;;;;;25.57;55.13;99717.84;10321625;28;20045;-63
2021/06/29 09:48:54;;;;;;;4.28;3.03;;;;;;;25.74;54.53;99699.72;10332382;28;20045;-60
2021/06/29 09:54:17;;;;;;;7.28;4.18;;;;;;;25.74;55.44;99705.16;10331740;28;20461;-60
2021/06/29 09:59:23;;;;;;;4.00;3.20;;;;;;;26.14;52.58;99695.47;10332632;28;20050;-61
2021/06/29 10:04:25;;;;;;;3.53;3.22;;;;;;;26.73;50.66;99703.50;10323278;28;20042;-62
2021/06/29 10:09:26;;;;;;;4.03;2.97;;;;;;;27.46;48.25;99692.78;10331391;28;20058;-61
2021/06/29 10:14:28;;;;;;;3.92;3.17;;;;;;;27.80;48.15;99683.72;10325411;28;20045;-61
2021/06/29 10:24:35;;;;;;;6.57;3.17;;;;;;;27.64;49.21;99664.38;10318410;28;19952;-63
2021/06/29 10:29:37;;;;;;;3.67;3.00;;;;;;;27.36;49.65;99654.38;10311254;28;20082;-60
2021/06/29 10:34:40;;;;;;;3.83;3.47;;;;;;;27.14;50.58;99635.13;10299378;28;20061;-61
2021/06/29 10:39:43;;;;;;;3.92;3.47;;;;;;;27.49;49.76;99634.09;10318960;28;20057;-61
2021/06/29 10:44:48;;;;;;;5.35;3.60;;;;;;;27.88;47.71;99636.81;10315428;28;20435;-61
2021/06/29 10:49:51;;;;;;;4.97;3.53;;;;;;;27.99;48.44;99626.88;10310530;28;20050;-61
2021/06/29 10:55:28;;;;;;;3.80;3.55;;;;;;;27.97;47.94;99631.75;10312508;28;20428;-62
2021/06/29 11:00:34;;;;;;;3.53;3.33;;;;;;;28.25;45.98;99635.38;10295670;28;20042;-61
2021/06/29 11:05:42;;;;;;;3.33;3.03;;;;;;;28.85;44.75;99631.66;10310928;28;20088;-61
2021/06/29 11:10:49;;;;;;;3.85;3.20;;;;;;;29.03;43.20;99629.63;10313958;28;20050;-64
2021/06/29 11:15:56;;;;;;;2.78;2.58;;;;;;;29.25;44.29;99616.69;10293455;28;20068;-61
2021/06/29 11:20:58;;;;;;;4.68;3.22;;;;;;;29.36;41.95;99616.75;10305957;28;21858;-61
2021/06/29 11:26:20;;;;;;;3.27;2.87;;;;;;;29.19;43.38;99616.91;10309950;28;20049;-61
2021/06/29 11:31:40;;;;;;;4.65;3.25;;;;;;;29.53;41.67;99609.22;10303139;28;20128;-61
2021/06/29 11:36:52;;;;;;;4.07;2.58;;;;;;;29.60;42.61;99614.44;10307576;28;20073;-61
2021/06/29 11:42:01;;;;;;;;;;;;;;;29.76;41.29;99604.41;10309296;28;20054;-62
2021/06/29 11:47:11;;;;;;;2.95;2.75;;;;;;;30.15;40.60;99598.56;10312502;28;19929;-62
2021/06/29 11:52:15;;;;;;;2.55;2.35;;;;;;;30.12;40.34;99594.44;10296571;28;20054;-64
2021/06/29 11:57:17;;;;;;;4.25;2.88;;;;;;;30.11;40.46;99573.56;10310190;28;20065;-62
2021/06/29 12:02:28;;;;;;;3.20;2.30;;;;;;;30.22;39.92;99562.63;10288424;28;20057;-62
2021/06/29 12:07:38;;;;;;;2.73;2.47;;;;;;;30.17;40.35;99546.97;10306652;28;20038;-62
2021/06/29 12:12:42;;;;;;;2.58;2.38;;;;;;;30.24;38.50;99544.78;10312339;28;20076;-65
2021/06/29 12:18:09;;;;;;;2.85;2.50;;;;;;;30.26;38.55;99520.63;10302902;28;20398;-62
2021/06/29 12:23:13;;;;;;;2.75;2.08;;;;;;;30.36;37.68;99502.56;10306799;28;20656;-62
2021/06/29 12:28:19;;;;;;;4.53;1.92;;;;;;;30.39;38.84;99485.53;10305305;28;20046;-63
2021/06/29 12:33:29;;;;;;;2.15;2.00;;;;;;;30.35;36.62;99473.44;10305459;28;20148;-61
2021/06/29 12:38:36;;;;;;;3.95;1.90;;;;;;;30.47;36.69;99465.78;10310463;28;20041;-60
2021/06/29 12:43:40;;;;;;;3.50;2.28;;;;;;;30.88;36.05;99468.47;10304416;28;20058;-61
2021/06/29 12:49:02;;;;;;;3.05;2.10;;;;;;;30.21;38.47;99487.69;10307021;28;20419;-62
2021/06/29 12:54:07;;;;;;;2.67;2.25;;;;;;;29.93;38.84;99473.38;10304672;28;20511;-63
2021/06/29 12:59:11;;;;;;;3.05;2.40;;;;;;;29.74;38.95;99475.78;10306885;28;20053;-61
2021/06/29 13:04:15;;;;;;;4.72;2.63;;;;;;;29.41;39.21;99483.31;10305309;28;20042;-62
2021/06/29 13:09:19;;;;;;;2.70;2.47;;;;;;;29.16;39.79;99470.28;10307069;28;20149;-62
2021/06/29 13:14:21;;;;;;;2.53;2.10;;;;;;;28.95;40.00;99476.75;10300213;28;20054;-62
2021/06/29 13:19:22;;;;;;;3.97;2.93;;;;;;;28.89;40.62;99470.41;10310141;28;20065;-62
2021/06/29 13:24:24;;;;;;;2.53;2.33;;;;;;;28.86;40.24;99471.75;10310762;28;20312;-63
2021/06/29 13:29:31;;;;;;;3.17;2.33;;;;;;;28.86;40.86;99477.22;10305372;28;20720;-63
2021/06/29 13:34:36;;;;;;;3.17;2.20;;;;;;;28.72;41.42;99468.63;10307276;28;20130;-63
2021/06/29 13:39:40;;;;;;;3.70;2.95;;;;;;;28.83;42.14;99461.31;10307671;28;20057;-67
2021/06/29 13:45:01;;;;;;;2.97;2.33;;;;;;;28.66;43.21;99449.69;10302044;28;20061;-63
2021/06/29 13:50:08;;;;;;;6.30;2.92;;;;;;;28.18;44.09;99446.81;10309563;28;20053;-63
2021/06/29 13:55:14;;;;;;;2.75;2.55;;;;;;;28.06;44.67;99440.66;10303310;28;20050;-63
2021/06/29 14:00:31;;;;;;;3.63;2.42;;;;;;;27.90;44.86;99417.81;10303445;28;20045;-63
2021/06/29 14:05:34;;;;;;;2.75;2.55;;;;;;;27.52;45.71;99413.03;10307232;28;20037;-63
2021/06/29 14:10:36;;;;;;;4.03;3.13;;;;;;;26.94;48.37;99420.72;10311389;28;20081;-63
2021/06/29 14:15:57;;;;;;;3.22;2.55;;;;;;;26.45;50.61;99426.81;10308244;28;20484;-62
2021/06/29 14:21:03;;;;;;;3.72;3.00;;;;;;;26.38;50.85;99423.41;10313619;28;20054;-63
2021/06/29 14:26:05;;;;;;;3.33;2.58;;;;;;;25.83;51.17;99402.25;10311778;28;20053;-62
2021/06/29 14:31:07;;;;;;;5.60;3.28;;;;;;;25.77;52.86;99385.78;10292998;28;20062;-61
2021/06/29 14:36:13;;;;;;;5.80;3.10;;;;;;;25.01;54.04;99404.13;10309856;28;20064;-63
2021/06/29 14:41:16;;;;;;;10.00;5.30;;;;;;;24.80;60.17;99435.50;10313430;28;20049;-62
2021/06/29 14:46:18;;;;;;;6.50;4.57;;;;;;;24.18;65.83;99521.00;10313631;28;20053;-57
2021/06/29 14:51:24;;;;;;;4.68;2.25;;;;;;;21.91;79.53;99560.97;10310876;28;20056;-56
2021/06/29 14:56:36;;;;;;;7.05;2.30;;;;;;;21.12;84.92;99586.09;10312522;28;20058;-56
2021/06/29 15:01:38;;;;;;;4.63;1.60;;;;;;;20.39;85.08;99576.00;10310700;28;20054;-56
2021/06/29 15:06:39;;;;;;;8.18;1.80;;;;;;;19.66;93.24;99624.28;10307116;28;20054;-59
2021/06/29 15:11:43;;;;;;;5.22;1.58;;;;;;;18.57;100.00;99620.84;10308073;28;20061;-62
2021/06/29 15:16:45;;;;;;;4.90;1.52;;;;;;;18.37;100.00;99604.47;10312365;28;20050;-61
2021/06/29 15:21:46;;;;;;;2.85;1.40;;;;;;;18.45;100.00;99598.09;10312608;28;20092;-62
2021/06/29 15:26:48;;;;;;;2.35;1.63;;;;;;;18.55;100.00;99590.56;10307639;28;20171;-61
2021/06/29 15:31:50;;;;;;;2.28;1.05;;;;;;;18.64;98.18;99605.56;10308522;28;20096;-60
2021/06/29 15:36:52;;;;;;;1.10;1.00;;;;;;;18.61;96.15;99599.75;10314345;28;20153;-61
2021/06/29 15:41:53;;;;;;;2.55;1.23;;;;;;;18.51;100.00;99605.44;10314122;28;20049;-62
2021/06/29 15:46:56;;;;;;;2.97;1.05;;;;;;;18.92;99.89;99634.50;10313484;28;20528;-62
2021/06/29 15:51:58;;;;;;;2.30;0.93;;;;;;;18.63;92.88;99652.44;10288512;28;20069;-60
2021/06/29 15:57:00;;;;;;;2.15;1.10;;;;;;;18.85;95.62;99652.44;10313223;28;20061;-61
2021/06/29 16:02:01;;;;;;;1.33;0.70;;;;;;;19.06;90.30;99635.44;10310777;28;20065;-66
2021/06/29 16:07:03;;;;;;;2.55;0.90;;;;;;;19.19;90.75;99629.34;10313391;28;21217;-61
2021/06/29 16:12:05;;;;;;;1.30;1.02;;;;;;;19.30;96.85;99647.69;10308722;28;20488;-61
2021/06/29 16:17:06;;;;;;;2.00;1.10;;;;;;;19.37;90.18;99632.38;10307826;28;20053;-61
2021/06/29 16:22:08;;;;;;;2.83;1.58;;;;;;;19.62;92.80;99640.03;10307593;28;21031;-61
2021/06/29 16:27:10;;;;;;;5.05;1.65;;;;;;;19.66;90.81;99641.31;10307958;28;20531;-60
2021/06/29 16:32:11;;;;;;;4.18;2.30;;;;;;;19.46;92.17;99626.84;10310310;28;20054;-60
2021/06/29 16:37:13;;;;;;;3.38;1.35;;;;;;;19.47;89.60;99615.88;10311305;28;20434;-61
2021/06/29 16:42:14;;;;;;;3.25;1.60;;;;;;;19.63;90.12;99606.59;10291637;28;20042;-61
2021/06/29 16:47:16;;;;;;;2.60;1.30;;;;;;;19.72;86.32;99605.41;10301687;28;20122;-60
2021/06/29 16:52:17;;;;;;;3.70;1.13;;;;;;;19.95;91.60;99601.59;10312450;28;20507;-60
2021/06/29 16:57:19;;;;;;;1.98;1.20;;;;;;;19.94;87.72;99613.47;10303959;28;20466;-60
2021/06/29 17:02:20;;;;;;;3.17;1.17;;;;;;;20.02;91.38;99618.69;10302453;28;20623;-60
2021/06/29 17:07:22;;;;;;;2.28;0.90;;;;;;;20.06;86.88;99609.16;10305750;28;20049;-64
2021/06/29 17:12:25;;;;;;;2.38;1.33;;;;;;;19.99;85.30;99588.53;10306265;28;20053;-60
2021/06/29 17:17:27;;;;;;;2.42;1.17;;;;;;;19.88;90.03;99581.84;10300768;28;20700;-60
2021/06/29 17:22:29;;;;;;;1.65;1.00;;;;;;;19.81;89.77;99564.78;10290715;28;20047;-60
2021/06/29 17:27:31;;;;;;;2.40;0.82;;;;;;;19.71;88.38;99571.34;10286197;28;20471;-61
2021/06/29 17:32:33;;;;;;;1.45;0.80;;;;;;;19.98;86.86;99595.78;10285868;28;20549;-60
2021/06/29 17:37:35;;;;;;;2.47;1.05;;;;;;;19.84;82.28;99602.19;10303956;28;20068;-60
2021/06/29 17:42:38;;;;;;;2.15;1.17;;;;;;;19.84;84.44;99629.19;10305200;28;20061;-61
2021/06/29 17:47:40;;;;;;;3.90;2.47;;;;;;;19.58;86.51;99633.38;10310192;28;20054;-55
2021/06/29 17:52:43;;;;;;;4.03;1.90;;;;;;;19.55;86.60;99647.25;10308644;28;20144;-57
2021/06/29 17:57:45;;;;;;;5.05;2.47;;;;;;;19.20;88.08;99636.38;10308365;28;20049;-57
2021/06/29 18:02:46;;;;;;;3.25;2.20;;;;;;;19.38;88.27;99650.25;10309309;28;20125;-55
2021/06/29 18:07:48;;;;;;;2.35;1.90;;;;;;;19.39;86.94;99638.41;10313889;28;20129;-57
2021/06/29 18:12:49;;;;;;;2.17;1.50;;;;;;;19.65;88.86;99634.25;10288442;28;20053;-57
2021/06/29 18:17:51;;;;;;;2.80;1.58;;;;;;;19.59;86.01;99635.88;10295182;28;20449;-58
2021/06/29 18:22:53;;;;;;;1.40;1.10;;;;;;;19.82;87.45;99629.38;10305093;28;20053;-58
2021/06/29 18:27:54;;;;;;;1.50;1.13;;;;;;;19.84;83.27;99653.50;10307231;28;20133;-56
2021/06/29 18:32:56;;;;;;;1.80;1.05;;;;;;;19.68;83.06;99646.50;10308638;28;20818;-56
2021/06/29 18:37:58;;;;;;;2.38;1.10;;;;;;;19.80;84.99;99658.44;10304789;28;20050;-57
2021/06/29 18:42:59;;;;;;;2.80;1.60;;;;;;;19.78;86.41;99637.03;10292886;28;20061;-58
2021/06/29 18:48:01;;;;;;;2.30;1.50;;;;;;;19.88;85.82;99622.38;10289338;28;20238;-57
2021/06/29 18:53:04;;;;;;;2.27;1.30;;;;;;;19.79;82.25;99637.91;10294275;28;20174;-58
2021/06/29 18:58:06;;;;;;;2.40;1.02;;;;;;;19.49;83.00;99645.34;10307406;28;20058;-61
2021/06/29 19:03:07;;;;;;;1.58;1.00;;;;;;;19.46;84.96;99635.78;10310294;28;20053;-60
2021/06/29 19:08:09;;;;;;;2.40;1.25;;;;;;;19.59;84.93;99640.41;10312899;28;20049;-55
2021/06/29 19:13:11;;;;;;;3.00;1.63;;;;;;;19.65;87.14;99642.34;10308444;28;20050;-58
2021/06/29 19:18:13;;;;;;;2.08;1.38;;;;;;;19.77;83.72;99640.78;10298965;28;20054;-55
2021/06/29 19:23:14;;;;;;;1.55;1.33;;;;;;;19.67;87.08;99648.38;10308849;28;20149;-58
2021/06/29 19:28:16;;;;;;;2.55;1.38;;;;;;;19.48;83.16;99654.47;10305443;28;20077;-63
2021/06/29 19:33:18;;;;;;;3.65;1.55;;;;;;;19.43;87.46;99649.66;10306479;28;20051;-58
2021/06/29 19:38:19;;;;;;;2.72;1.80;;;;;;;19.42;88.04;99642.59;10305834;28;20057;-56
2021/06/29 19:43:21;;;;;;;3.00;1.67;;;;;;;19.42;85.50;99665.00;10306337;28;20057;-57
2021/06/29 19:48:24;;;;;;;1.98;1.33;;;;;;;19.36;84.43;99655.00;10305577;28;20047;-57
2021/06/29 19:53:26;;;;;;;2.08;1.45;;;;;;;19.41;87.24;99649.88;10288659;28;20065;-64
2021/06/29 19:58:28;;;;;;;1.70;1.30;;;;;;;19.38;86.69;99644.84;10301761;28;20054;-60
2021/06/29 20:03:29;;;;;;;2.45;1.20;;;;;;;19.34;83.13;99659.75;10310138;28;20057;-59
2021/06/29 20:08:31;;;;;;;3.17;1.35;;;;;;;19.19;86.42;99661.72;10305125;28;20057;-59
2021/06/29 20:13:33;;;;;;;3.20;1.63;;;;;;;19.12;85.97;99671.59;10306430;28;20403;-59
2021/06/29 20:18:34;;;;;;;2.63;1.60;;;;;;;19.02;86.85;99659.28;10307689;28;20042;-59
2021/06/29 20:23:36;;;;;;;2.17;1.60;;;;;;;19.11;89.16;99653.75;10310704;28;20069;-60
2021/06/29 20:28:38;;;;;;;1.95;1.05;;;;;;;19.10;86.63;99657.50;10305981;28;20046;-59
2021/06/29 20:33:39;;;;;;;3.88;0.80;;;;;;;19.05;85.25;99672.38;10308316;28;20455;-61
2021/06/29 20:38:41;;;;;;;3.60;1.10;;;;;;;19.04;87.98;99691.47;10308701;28;20046;-59
2021/06/29 20:43:45;;;;;;;2.60;0.68;;;;;;;19.04;87.89;99676.09;10307192;28;20157;-60
2021/06/29 20:48:46;;;;;;;3.72;1.35;;;;;;;19.00;83.78;99680.19;10329897;28;20061;-61
2021/06/29 20:53:48;;;;;;;2.42;1.30;;;;;;;19.05;89.62;99688.56;10330608;28;20050;-61
2021/06/29 20:58:49;;;;;;;2.97;0.90;;;;;;;19.12;86.74;99690.50;10332795;28;20045;-61
2021/06/29 21:03:51;;;;;;;2.53;1.00;;;;;;;19.07;83.83;99697.28;10340662;28;20542;-60
2021/06/29 21:08:52;;;;;;;1.77;0.77;;;;;;;19.05;83.71;99699.34;10324770;28;20383;-60
2021/06/29 21:13:55;;;;;;;2.53;1.05;;;;;;;18.93;84.23;99694.66;10351825;28;20050;-60
2021/06/29 21:19:03;;;;;;;2.15;1.30;;;;;;;18.81;85.02;99707.75;10353339;28;20045;-60
2021/06/29 21:24:10;;;;;;;1.88;1.58;;;;;;;18.85;86.02;99698.28;10345966;28;20480;-61
2021/06/29 21:29:16;;;;;;;2.58;1.27;;;;;;;18.73;86.91;99679.91;10346655;28;20242;-60
2021/06/29 21:34:23;;;;;;;4.80;1.77;;;;;;;18.63;87.34;99684.78;10352214;28;20053;-60
2021/06/29 21:39:29;;;;;;;4.38;1.30;;;;;;;18.60;86.52;99697.78;10354705;28;20046;-60
2021/06/29 21:44:36;;;;;;;3.88;1.25;;;;;;;18.64;85.62;99686.44;10355123;28;20045;-61
2021/06/29 21:49:42;;;;;;;2.40;1.80;;;;;;;18.58;85.37;99681.81;10353078;28;20054;-61
2021/06/29 21:54:48;;;;;;;2.60;1.73;;;;;;;18.56;85.79;99689.25;10358327;28;20049;-60
2021/06/29 21:59:55;;;;;;;4.15;1.60;;;;;;;18.43;86.17;99716.03;10353873;28;20057;-60
2021/06/29 22:05:02;;;;;;;5.20;1.60;;;;;;;18.34;88.31;99724.19;10349228;28;20068;-60
2021/06/29 22:10:09;;;;;;;2.88;1.77;;;;;;;18.19;89.53;99724.25;10347123;28;20475;-60
2021/06/29 22:15:15;;;;;;;3.50;1.75;;;;;;;18.22;86.32;99706.03;10344901;28;20387;-60
2021/06/29 22:20:22;;;;;;;4.35;1.63;;;;;;;18.14;87.98;99707.78;10349151;28;20057;-60
2021/06/29 22:25:28;;;;;;;4.65;2.05;;;;;;;18.12;87.39;99698.22;10345119;28;20045;-59
2021/06/29 22:30:37;;;;;;;2.10;1.90;;;;;;;17.90;88.62;99700.00;10344788;28;20045;-60
2021/06/29 22:35:43;;;;;;;3.72;1.92;;;;;;;17.64;87.68;99696.69;10345853;28;20072;-61
2021/06/29 22:40:50;;;;;;;4.40;2.05;;;;;;;17.62;87.28;99704.06;10340757;28;20049;-60
2021/06/29 22:45:51;;;;;;;4.15;2.03;;;;;;;17.47;89.25;99701.38;10323761;28;20072;-60
2021/06/29 22:50:58;;;;;;;6.25;2.55;;;;;;;17.41;88.36;99699.41;10347130;28;20045;-62
2021/06/29 22:56:04;;;;;;;5.30;2.50;;;;;;;17.49;87.37;99698.50;10335218;28;20048;-60
2021/06/29 23:01:11;;;;;;;4.88;2.92;;;;;;;17.43;87.57;99694.69;10343489;28;20527;-60
2021/06/29 23:06:17;;;;;;;4.15;2.95;;;;;;;17.31;87.84;99699.66;10347464;28;20053;-59
2021/06/29 23:11:24;;;;;;;5.47;2.85;;;;;;;17.43;87.37;99708.13;10345600;28;20048;-60
2021/06/29 23:16:30;;;;;;;4.45;2.55;;;;;;;17.43;87.24;99726.13;10345132;28;20053;-62
2021/06/29 23:21:37;;;;;;;6.60;2.63;;;;;;;17.34;88.45;99721.81;10341785;28;20084;-62
2021/06/29 23:26:43;;;;;;;6.03;2.65;;;;;;;17.44;87.19;99725.09;10344782;28;20508;-60
2021/06/29 23:31:50;;;;;;;3.20;1.92;;;;;;;17.46;86.90;99710.47;10339167;28;20052;-60
2021/06/29 23:36:56;;;;;;;4.40;2.72;;;;;;;17.49;86.63;99720.88;10333177;28;20046;-60
2021/06/29 23:42:03;;;;;;;7.00;2.35;;;;;;;17.66;86.59;99721.53;10340199;28;20056;-60